Minneapolis, MN

6:14 AM CDT on March 26, 2017 (GMT -0500)
RBC Plaza Weather | | Change Station

Elev 853 ft 44.98 °N, 93.27 °W | Updated 15 seconds ago

Rain
Rain
33.4 °F
Feels Like 30 °F
N
4.0
Wind Variable Wind from East

Today
High -- | Low -- °F
--% Chance of Precip.
Yesterday
High -- | Low -- °F
Precip. -- in
Pressure 29.96 in
Visibility 5.0 miles
Clouds Overcast 900 ft
Windchill 30 °F
Dew Point 32 °F
Humidity 96%
Rainfall 0.09 in
Snow Depth Not available.
7:04 AM 7:33 PM
Waning Crescent, 4% visible
METAR KMIC 261053Z AUTO 05003KT 5SM -RA BR OVC009 02/01 A2994 RMK AO2 SLP146 P0004 T00220006
Pressure 29.96 in
Visibility 5.0 miles
Clouds Overcast 900 ft
Windchill 30 °F
Dew Point 32 °F
Humidity 96%
Rainfall 0.09 in
Snow Depth Not available.
7:04 AM 7:33 PM
Waning Crescent, 4% visible
METAR KMIC 261053Z AUTO 05003KT 5SM -RA BR OVC009 02/01 A2994 RMK AO2 SLP146 P0004 T00220006

Get Severe Weather Alerts

Thanks for signing up!

Be on the lookout for a verification email in your inbox.

You'll start receiving the daily forecast at 8 AM.

×

10-Day Weather Forecast

Almanac

Astronomy

Mar. 26, 2017 Rise Set
Actual Time
Civil Twilight
Nautical Twilight
Astronomical Twilight
Moon
Length of Visible Light
Length of Day
Tomorrow will be .
, % of the Moon is Illuminated

Today's Extremes

State Highs State Lows

Community

WunderPhotos

Upload Photos

1,962,540 photos uploaded!

WunderBlog® & News

Nearby

Air Quality

  Air Quality AQ Index Pollutant
Not available.

Snow Depth

Station Depth Elevation

Earthquake Activity

City Distance Mag. Time & Date
Minimum magnitude displayed is 2.5.

Earthquake Activity

City Distance Mag. Time & Date
Minimum magnitude displayed is 2.5.

Coastal Water Temperatures

Place Temperature

Stations

Nearby Weather Stations

Station Location Temp. Windchill Dew Point Humidity Wind Precip. Elev Updated Type
                   

Watches & Warnings

There are currently no watches in effect.